sensor_id;sensor_type;location;lat;lon;timestamp;P1;durP1;ratioP1;P2;durP2;ratioP2
30287;SDS011;17103;48.316;11.558;2023-04-06T00:01:30;6.72;;;4.32;;
30287;SDS011;17103;48.316;11.558;2023-04-06T00:03:56;6.47;;;4.63;;
30287;SDS011;17103;48.316;11.558;2023-04-06T00:06:23;6.15;;;4.15;;
30287;SDS011;17103;48.316;11.558;2023-04-06T00:08:48;9.82;;;4.68;;
30287;SDS011;17103;48.316;11.558;2023-04-06T00:11:14;7.60;;;4.20;;
30287;SDS011;17103;48.316;11.558;2023-04-06T00:13:41;8.30;;;5.22;;
30287;SDS011;17103;48.316;11.558;2023-04-06T00:16:07;8.25;;;4.85;;
30287;SDS011;17103;48.316;11.558;2023-04-06T00:18:33;8.15;;;5.32;;
30287;SDS011;17103;48.316;11.558;2023-04-06T00:20:59;7.30;;;5.25;;
30287;SDS011;17103;48.316;11.558;2023-04-06T00:23:25;7.85;;;5.72;;
30287;SDS011;17103;48.316;11.558;2023-04-06T00:25:50;8.25;;;5.50;;
30287;SDS011;17103;48.316;11.558;2023-04-06T00:28:16;9.10;;;5.72;;
30287;SDS011;17103;48.316;11.558;2023-04-06T00:30:42;11.00;;;5.18;;
30287;SDS011;17103;48.316;11.558;2023-04-06T00:33:08;8.30;;;5.25;;
30287;SDS011;17103;48.316;11.558;2023-04-06T00:35:34;10.93;;;5.55;;
30287;SDS011;17103;48.316;11.558;2023-04-06T00:37:59;8.18;;;4.85;;
30287;SDS011;17103;48.316;11.558;2023-04-06T00:40:25;7.00;;;5.00;;
30287;SDS011;17103;48.316;11.558;2023-04-06T00:42:53;9.45;;;5.30;;
30287;SDS011;17103;48.316;11.558;2023-04-06T00:45:19;9.13;;;4.60;;
30287;SDS011;17103;48.316;11.558;2023-04-06T00:47:45;7.45;;;4.75;;
30287;SDS011;17103;48.316;11.558;2023-04-06T00:50:10;6.00;;;4.57;;
30287;SDS011;17103;48.316;11.558;2023-04-06T00:52:36;6.80;;;4.47;;
30287;SDS011;17103;48.316;11.558;2023-04-06T00:55:02;10.15;;;4.97;;
30287;SDS011;17103;48.316;11.558;2023-04-06T00:57:28;5.53;;;4.28;;
30287;SDS011;17103;48.316;11.558;2023-04-06T00:59:54;7.63;;;5.20;;
30287;SDS011;17103;48.316;11.558;2023-04-06T01:02:21;7.05;;;4.93;;
30287;SDS011;17103;48.316;11.558;2023-04-06T01:04:46;6.78;;;4.72;;
30287;SDS011;17103;48.316;11.558;2023-04-06T01:07:12;6.50;;;4.35;;
30287;SDS011;17103;48.316;11.558;2023-04-06T01:09:38;5.57;;;4.20;;
30287;SDS011;17103;48.316;11.558;2023-04-06T01:12:06;6.93;;;4.78;;
30287;SDS011;17103;48.316;11.558;2023-04-06T01:14:31;7.97;;;5.10;;
30287;SDS011;17103;48.316;11.558;2023-04-06T01:16:58;7.60;;;5.03;;
30287;SDS011;17103;48.316;11.558;2023-04-06T01:19:25;6.28;;;4.50;;
30287;SDS011;17103;48.316;11.558;2023-04-06T01:21:51;7.50;;;4.28;;
30287;SDS011;17103;48.316;11.558;2023-04-06T01:24:18;7.57;;;5.13;;
30287;SDS011;17103;48.316;11.558;2023-04-06T01:26:44;6.15;;;4.80;;
30287;SDS011;17103;48.316;11.558;2023-04-06T01:29:10;7.63;;;4.78;;
30287;SDS011;17103;48.316;11.558;2023-04-06T01:31:36;8.02;;;4.45;;
30287;SDS011;17103;48.316;11.558;2023-04-06T01:34:02;7.45;;;4.03;;
30287;SDS011;17103;48.316;11.558;2023-04-06T01:36:27;4.97;;;3.67;;
30287;SDS011;17103;48.316;11.558;2023-04-06T01:38:54;5.15;;;3.60;;
30287;SDS011;17103;48.316;11.558;2023-04-06T01:41:20;5.90;;;3.88;;
30287;SDS011;17103;48.316;11.558;2023-04-06T01:43:46;6.43;;;3.97;;
30287;SDS011;17103;48.316;11.558;2023-04-06T01:46:13;8.00;;;4.60;;
30287;SDS011;17103;48.316;11.558;2023-04-06T01:48:39;5.45;;;3.75;;
30287;SDS011;17103;48.316;11.558;2023-04-06T01:51:05;7.22;;;4.38;;
30287;SDS011;17103;48.316;11.558;2023-04-06T01:53:30;8.35;;;4.13;;
30287;SDS011;17103;48.316;11.558;2023-04-06T01:55:56;6.00;;;4.22;;
30287;SDS011;17103;48.316;11.558;2023-04-06T01:58:22;6.32;;;3.97;;
30287;SDS011;17103;48.316;11.558;2023-04-06T02:00:47;5.57;;;3.92;;
30287;SDS011;17103;48.316;11.558;2023-04-06T02:03:13;6.18;;;4.10;;
30287;SDS011;17103;48.316;11.558;2023-04-06T02:05:39;8.52;;;4.50;;
30287;SDS011;17103;48.316;11.558;2023-04-06T02:08:05;6.25;;;4.22;;
30287;SDS011;17103;48.316;11.558;2023-04-06T02:10:32;6.72;;;4.50;;
30287;SDS011;17103;48.316;11.558;2023-04-06T02:12:58;6.30;;;4.32;;
30287;SDS011;17103;48.316;11.558;2023-04-06T02:15:24;5.93;;;4.03;;
30287;SDS011;17103;48.316;11.558;2023-04-06T02:17:50;5.88;;;4.50;;
30287;SDS011;17103;48.316;11.558;2023-04-06T02:20:16;6.20;;;4.35;;
30287;SDS011;17103;48.316;11.558;2023-04-06T02:22:42;6.50;;;4.15;;
30287;SDS011;17103;48.316;11.558;2023-04-06T02:25:09;7.57;;;4.47;;
30287;SDS011;17103;48.316;11.558;2023-04-06T02:27:34;7.30;;;4.45;;
30287;SDS011;17103;48.316;11.558;2023-04-06T02:30:01;5.13;;;4.28;;
30287;SDS011;17103;48.316;11.558;2023-04-06T02:32:27;8.27;;;5.13;;
30287;SDS011;17103;48.316;11.558;2023-04-06T02:34:53;6.70;;;4.47;;
30287;SDS011;17103;48.316;11.558;2023-04-06T02:37:18;7.25;;;4.80;;
30287;SDS011;17103;48.316;11.558;2023-04-06T02:39:44;5.90;;;4.13;;
30287;SDS011;17103;48.316;11.558;2023-04-06T02:42:10;8.38;;;5.10;;
30287;SDS011;17103;48.316;11.558;2023-04-06T02:44:36;8.02;;;4.90;;
30287;SDS011;17103;48.316;11.558;2023-04-06T02:47:01;7.18;;;5.03;;
30287;SDS011;17103;48.316;11.558;2023-04-06T02:49:27;7.97;;;5.75;;
30287;SDS011;17103;48.316;11.558;2023-04-06T02:51:54;7.05;;;4.28;;
30287;SDS011;17103;48.316;11.558;2023-04-06T02:54:19;7.40;;;4.65;;
30287;SDS011;17103;48.316;11.558;2023-04-06T02:56:45;7.10;;;4.80;;
30287;SDS011;17103;48.316;11.558;2023-04-06T02:59:11;7.70;;;4.78;;
30287;SDS011;17103;48.316;11.558;2023-04-06T03:01:36;6.85;;;4.72;;
30287;SDS011;17103;48.316;11.558;2023-04-06T03:04:02;7.32;;;5.18;;
30287;SDS011;17103;48.316;11.558;2023-04-06T03:06:28;6.68;;;4.82;;
30287;SDS011;17103;48.316;11.558;2023-04-06T03:08:53;6.20;;;5.00;;
30287;SDS011;17103;48.316;11.558;2023-04-06T03:11:19;6.03;;;4.68;;
30287;SDS011;17103;48.316;11.558;2023-04-06T03:13:45;6.80;;;4.93;;
30287;SDS011;17103;48.316;11.558;2023-04-06T03:16:11;5.82;;;4.90;;
30287;SDS011;17103;48.316;11.558;2023-04-06T03:18:37;8.25;;;5.47;;
30287;SDS011;17103;48.316;11.558;2023-04-06T03:21:02;7.32;;;4.78;;
30287;SDS011;17103;48.316;11.558;2023-04-06T03:23:28;8.85;;;5.70;;
30287;SDS011;17103;48.316;11.558;2023-04-06T03:25:54;5.88;;;4.72;;
30287;SDS011;17103;48.316;11.558;2023-04-06T03:28:19;7.35;;;5.32;;
30287;SDS011;17103;48.316;11.558;2023-04-06T03:30:45;7.47;;;5.05;;
30287;SDS011;17103;48.316;11.558;2023-04-06T03:33:11;7.95;;;5.13;;
30287;SDS011;17103;48.316;11.558;2023-04-06T03:35:36;10.30;;;5.22;;
30287;SDS011;17103;48.316;11.558;2023-04-06T03:38:03;8.98;;;5.45;;
30287;SDS011;17103;48.316;11.558;2023-04-06T03:40:29;6.72;;;4.93;;
30287;SDS011;17103;48.316;11.558;2023-04-06T03:42:56;10.45;;;4.95;;
30287;SDS011;17103;48.316;11.558;2023-04-06T03:45:21;7.15;;;5.10;;
30287;SDS011;17103;48.316;11.558;2023-04-06T03:47:47;6.43;;;4.72;;
30287;SDS011;17103;48.316;11.558;2023-04-06T03:50:13;7.68;;;4.25;;
30287;SDS011;17103;48.316;11.558;2023-04-06T03:52:38;5.88;;;4.60;;
30287;SDS011;17103;48.316;11.558;2023-04-06T03:55:04;7.45;;;4.60;;
30287;SDS011;17103;48.316;11.558;2023-04-06T03:57:31;6.35;;;3.95;;
30287;SDS011;17103;48.316;11.558;2023-04-06T03:59:56;6.05;;;4.43;;
30287;SDS011;17103;48.316;11.558;2023-04-06T04:02:22;5.18;;;4.10;;
30287;SDS011;17103;48.316;11.558;2023-04-06T04:04:47;6.15;;;4.40;;
30287;SDS011;17103;48.316;11.558;2023-04-06T04:07:13;4.63;;;3.38;;
30287;SDS011;17103;48.316;11.558;2023-04-06T04:09:39;7.03;;;4.22;;
30287;SDS011;17103;48.316;11.558;2023-04-06T04:12:05;7.45;;;4.40;;
30287;SDS011;17103;48.316;11.558;2023-04-06T04:14:31;10.07;;;3.80;;
30287;SDS011;17103;48.316;11.558;2023-04-06T04:16:57;4.82;;;3.45;;
30287;SDS011;17103;48.316;11.558;2023-04-06T04:19:23;6.63;;;3.63;;
30287;SDS011;17103;48.316;11.558;2023-04-06T04:21:48;7.45;;;3.95;;
30287;SDS011;17103;48.316;11.558;2023-04-06T04:24:14;5.00;;;3.40;;
30287;SDS011;17103;48.316;11.558;2023-04-06T04:26:40;6.72;;;4.53;;
30287;SDS011;17103;48.316;11.558;2023-04-06T04:29:06;4.47;;;3.35;;
30287;SDS011;17103;48.316;11.558;2023-04-06T04:31:31;7.88;;;3.90;;
30287;SDS011;17103;48.316;11.558;2023-04-06T04:33:59;5.78;;;3.83;;
30287;SDS011;17103;48.316;11.558;2023-04-06T04:36:25;6.65;;;4.05;;
30287;SDS011;17103;48.316;11.558;2023-04-06T04:38:51;6.82;;;3.63;;
30287;SDS011;17103;48.316;11.558;2023-04-06T04:41:17;6.28;;;4.25;;
30287;SDS011;17103;48.316;11.558;2023-04-06T04:43:43;6.20;;;3.38;;
30287;SDS011;17103;48.316;11.558;2023-04-06T04:46:09;7.28;;;3.80;;
30287;SDS011;17103;48.316;11.558;2023-04-06T04:48:35;7.53;;;3.55;;
30287;SDS011;17103;48.316;11.558;2023-04-06T04:51:01;10.43;;;4.35;;
30287;SDS011;17103;48.316;11.558;2023-04-06T04:53:26;6.50;;;3.95;;
30287;SDS011;17103;48.316;11.558;2023-04-06T04:55:52;7.57;;;3.85;;
30287;SDS011;17103;48.316;11.558;2023-04-06T04:58:18;6.53;;;3.47;;
30287;SDS011;17103;48.316;11.558;2023-04-06T05:00:44;6.45;;;4.07;;
30287;SDS011;17103;48.316;11.558;2023-04-06T05:03:21;9.18;;;4.93;;
30287;SDS011;17103;48.316;11.558;2023-04-06T05:05:49;5.35;;;3.78;;
30287;SDS011;17103;48.316;11.558;2023-04-06T05:08:15;7.40;;;4.07;;
30287;SDS011;17103;48.316;11.558;2023-04-06T05:10:42;7.25;;;4.30;;
30287;SDS011;17103;48.316;11.558;2023-04-06T05:13:09;6.50;;;3.78;;
30287;SDS011;17103;48.316;11.558;2023-04-06T05:15:35;6.32;;;3.83;;
30287;SDS011;17103;48.316;11.558;2023-04-06T05:18:03;5.93;;;4.18;;
30287;SDS011;17103;48.316;11.558;2023-04-06T05:20:29;5.65;;;3.58;;
30287;SDS011;17103;48.316;11.558;2023-04-06T05:22:55;7.05;;;3.97;;
30287;SDS011;17103;48.316;11.558;2023-04-06T05:25:21;9.38;;;4.57;;
30287;SDS011;17103;48.316;11.558;2023-04-06T05:27:48;7.50;;;4.10;;
30287;SDS011;17103;48.316;11.558;2023-04-06T05:30:14;7.38;;;3.58;;
30287;SDS011;17103;48.316;11.558;2023-04-06T05:32:40;4.15;;;3.63;;
30287;SDS011;17103;48.316;11.558;2023-04-06T05:35:05;5.28;;;4.45;;
30287;SDS011;17103;48.316;11.558;2023-04-06T05:37:32;7.63;;;4.35;;
30287;SDS011;17103;48.316;11.558;2023-04-06T05:39:59;5.78;;;3.80;;
30287;SDS011;17103;48.316;11.558;2023-04-06T05:42:25;6.07;;;4.47;;
30287;SDS011;17103;48.316;11.558;2023-04-06T05:44:53;7.65;;;5.38;;
30287;SDS011;17103;48.316;11.558;2023-04-06T05:47:18;8.88;;;5.38;;
30287;SDS011;17103;48.316;11.558;2023-04-06T05:49:44;6.90;;;5.38;;
30287;SDS011;17103;48.316;11.558;2023-04-06T05:52:11;10.45;;;6.03;;
30287;SDS011;17103;48.316;11.558;2023-04-06T05:54:36;9.98;;;5.13;;
30287;SDS011;17103;48.316;11.558;2023-04-06T05:57:03;8.48;;;5.20;;
30287;SDS011;17103;48.316;11.558;2023-04-06T05:59:32;9.35;;;5.63;;
30287;SDS011;17103;48.316;11.558;2023-04-06T06:01:57;9.60;;;4.80;;
30287;SDS011;17103;48.316;11.558;2023-04-06T06:04:23;7.43;;;5.10;;
30287;SDS011;17103;48.316;11.558;2023-04-06T06:06:49;7.30;;;4.90;;
30287;SDS011;17103;48.316;11.558;2023-04-06T06:09:14;7.60;;;4.80;;
30287;SDS011;17103;48.316;11.558;2023-04-06T06:11:40;9.38;;;6.22;;
30287;SDS011;17103;48.316;11.558;2023-04-06T06:14:06;8.07;;;5.82;;
30287;SDS011;17103;48.316;11.558;2023-04-06T06:16:33;6.40;;;4.80;;
30287;SDS011;17103;48.316;11.558;2023-04-06T06:18:58;6.40;;;4.82;;
30287;SDS011;17103;48.316;11.558;2023-04-06T06:21:24;8.02;;;5.72;;
30287;SDS011;17103;48.316;11.558;2023-04-06T06:23:50;6.05;;;4.80;;
30287;SDS011;17103;48.316;11.558;2023-04-06T06:26:16;5.85;;;4.70;;
30287;SDS011;17103;48.316;11.558;2023-04-06T06:28:43;8.23;;;5.50;;
30287;SDS011;17103;48.316;11.558;2023-04-06T06:31:08;7.40;;;5.28;;
30287;SDS011;17103;48.316;11.558;2023-04-06T06:33:34;5.38;;;4.45;;
30287;SDS011;17103;48.316;11.558;2023-04-06T06:36:00;10.07;;;5.57;;
30287;SDS011;17103;48.316;11.558;2023-04-06T06:38:25;8.95;;;5.57;;
30287;SDS011;17103;48.316;11.558;2023-04-06T06:40:52;9.95;;;5.45;;
30287;SDS011;17103;48.316;11.558;2023-04-06T06:43:18;10.30;;;5.05;;
30287;SDS011;17103;48.316;11.558;2023-04-06T06:45:43;7.07;;;4.95;;
30287;SDS011;17103;48.316;11.558;2023-04-06T06:48:09;12.07;;;5.65;;
30287;SDS011;17103;48.316;11.558;2023-04-06T06:50:36;10.77;;;5.60;;
30287;SDS011;17103;48.316;11.558;2023-04-06T06:53:02;7.85;;;4.97;;
30287;SDS011;17103;48.316;11.558;2023-04-06T06:55:28;7.70;;;5.05;;
30287;SDS011;17103;48.316;11.558;2023-04-06T06:57:53;8.82;;;5.45;;
30287;SDS011;17103;48.316;11.558;2023-04-06T07:00:19;7.53;;;5.10;;
30287;SDS011;17103;48.316;11.558;2023-04-06T07:02:48;6.82;;;5.43;;
30287;SDS011;17103;48.316;11.558;2023-04-06T07:05:14;7.43;;;5.32;;
30287;SDS011;17103;48.316;11.558;2023-04-06T07:07:41;5.95;;;5.28;;
30287;SDS011;17103;48.316;11.558;2023-04-06T07:10:07;6.38;;;4.95;;
30287;SDS011;17103;48.316;11.558;2023-04-06T07:12:33;7.18;;;5.10;;
30287;SDS011;17103;48.316;11.558;2023-04-06T07:14:59;7.13;;;5.18;;
30287;SDS011;17103;48.316;11.558;2023-04-06T07:17:25;8.23;;;5.03;;
30287;SDS011;17103;48.316;11.558;2023-04-06T07:19:51;7.68;;;6.05;;
30287;SDS011;17103;48.316;11.558;2023-04-06T07:22:17;8.82;;;5.32;;
30287;SDS011;17103;48.316;11.558;2023-04-06T07:24:42;11.48;;;5.70;;
30287;SDS011;17103;48.316;11.558;2023-04-06T07:27:08;12.43;;;5.70;;
30287;SDS011;17103;48.316;11.558;2023-04-06T07:29:34;8.00;;;6.10;;
30287;SDS011;17103;48.316;11.558;2023-04-06T07:32:00;8.30;;;5.75;;
30287;SDS011;17103;48.316;11.558;2023-04-06T07:34:26;9.52;;;5.90;;
30287;SDS011;17103;48.316;11.558;2023-04-06T07:36:52;8.15;;;5.55;;
30287;SDS011;17103;48.316;11.558;2023-04-06T07:39:19;9.02;;;6.10;;
30287;SDS011;17103;48.316;11.558;2023-04-06T07:41:45;9.63;;;5.45;;
30287;SDS011;17103;48.316;11.558;2023-04-06T07:44:10;8.02;;;5.10;;
30287;SDS011;17103;48.316;11.558;2023-04-06T07:46:36;7.72;;;5.28;;
30287;SDS011;17103;48.316;11.558;2023-04-06T07:49:02;8.00;;;5.40;;
30287;SDS011;17103;48.316;11.558;2023-04-06T07:51:27;8.10;;;5.18;;
30287;SDS011;17103;48.316;11.558;2023-04-06T07:53:53;8.27;;;5.68;;
30287;SDS011;17103;48.316;11.558;2023-04-06T07:56:19;10.90;;;6.03;;
30287;SDS011;17103;48.316;11.558;2023-04-06T07:58:46;9.30;;;5.68;;
30287;SDS011;17103;48.316;11.558;2023-04-06T08:01:11;7.78;;;6.10;;
30287;SDS011;17103;48.316;11.558;2023-04-06T08:03:37;9.23;;;6.43;;
30287;SDS011;17103;48.316;11.558;2023-04-06T08:06:03;7.75;;;5.55;;
30287;SDS011;17103;48.316;11.558;2023-04-06T08:08:30;8.50;;;5.57;;
30287;SDS011;17103;48.316;11.558;2023-04-06T08:10:55;7.93;;;5.43;;
30287;SDS011;17103;48.316;11.558;2023-04-06T08:13:21;10.63;;;5.90;;
30287;SDS011;17103;48.316;11.558;2023-04-06T08:15:47;8.43;;;5.38;;
30287;SDS011;17103;48.316;11.558;2023-04-06T08:18:12;11.05;;;5.07;;
30287;SDS011;17103;48.316;11.558;2023-04-06T08:20:38;8.10;;;5.20;;
30287;SDS011;17103;48.316;11.558;2023-04-06T08:23:05;6.63;;;5.38;;
30287;SDS011;17103;48.316;11.558;2023-04-06T08:25:32;7.85;;;5.03;;
30287;SDS011;17103;48.316;11.558;2023-04-06T08:27:59;8.73;;;5.25;;
30287;SDS011;17103;48.316;11.558;2023-04-06T08:30:24;8.77;;;4.90;;
30287;SDS011;17103;48.316;11.558;2023-04-06T08:32:50;6.68;;;4.43;;
30287;SDS011;17103;48.316;11.558;2023-04-06T08:35:16;6.63;;;4.53;;
30287;SDS011;17103;48.316;11.558;2023-04-06T08:37:42;6.93;;;4.45;;
30287;SDS011;17103;48.316;11.558;2023-04-06T08:40:07;7.13;;;4.43;;
30287;SDS011;17103;48.316;11.558;2023-04-06T08:42:34;6.95;;;4.40;;
30287;SDS011;17103;48.316;11.558;2023-04-06T08:45:09;4.78;;;3.90;;
30287;SDS011;17103;48.316;11.558;2023-04-06T08:47:38;5.00;;;3.20;;
30287;SDS011;17103;48.316;11.558;2023-04-06T08:50:05;9.00;;;4.75;;
30287;SDS011;17103;48.316;11.558;2023-04-06T08:52:32;4.57;;;3.45;;
30287;SDS011;17103;48.316;11.558;2023-04-06T08:54:59;6.10;;;3.60;;
30287;SDS011;17103;48.316;11.558;2023-04-06T08:57:25;5.63;;;3.40;;
30287;SDS011;17103;48.316;11.558;2023-04-06T08:59:51;5.72;;;3.88;;
30287;SDS011;17103;48.316;11.558;2023-04-06T09:02:20;6.40;;;3.22;;
30287;SDS011;17103;48.316;11.558;2023-04-06T09:04:48;4.40;;;3.15;;
30287;SDS011;17103;48.316;11.558;2023-04-06T09:07:17;4.15;;;2.90;;
30287;SDS011;17103;48.316;11.558;2023-04-06T09:09:43;5.43;;;3.70;;
30287;SDS011;17103;48.316;11.558;2023-04-06T09:12:29;6.88;;;4.30;;
30287;SDS011;17103;48.316;11.558;2023-04-06T09:14:55;5.68;;;3.80;;
30287;SDS011;17103;48.316;11.558;2023-04-06T09:17:22;6.22;;;3.72;;
30287;SDS011;17103;48.316;11.558;2023-04-06T09:19:50;8.25;;;4.13;;
30287;SDS011;17103;48.316;11.558;2023-04-06T09:22:15;8.07;;;3.83;;
30287;SDS011;17103;48.316;11.558;2023-04-06T09:24:47;7.05;;;4.05;;
30287;SDS011;17103;48.316;11.558;2023-04-06T09:27:15;4.50;;;3.10;;
30287;SDS011;17103;48.316;11.558;2023-04-06T09:29:41;5.18;;;3.67;;
30287;SDS011;17103;48.316;11.558;2023-04-06T09:32:08;6.07;;;3.63;;
30287;SDS011;17103;48.316;11.558;2023-04-06T09:34:41;4.80;;;4.07;;
30287;SDS011;17103;48.316;11.558;2023-04-06T09:37:17;4.75;;;3.95;;
30287;SDS011;17103;48.316;11.558;2023-04-06T09:39:44;4.95;;;4.18;;
30287;SDS011;17103;48.316;11.558;2023-04-06T09:42:11;8.35;;;4.18;;
30287;SDS011;17103;48.316;11.558;2023-04-06T09:44:49;5.82;;;4.32;;
30287;SDS011;17103;48.316;11.558;2023-04-06T09:47:14;6.45;;;4.03;;
30287;SDS011;17103;48.316;11.558;2023-04-06T09:49:41;6.45;;;4.10;;
30287;SDS011;17103;48.316;11.558;2023-04-06T09:52:08;5.75;;;4.30;;
30287;SDS011;17103;48.316;11.558;2023-04-06T09:54:36;7.57;;;4.18;;
30287;SDS011;17103;48.316;11.558;2023-04-06T10:02:08;7.10;;;4.70;;
30287;SDS011;17103;48.316;11.558;2023-04-06T10:04:50;5.38;;;4.70;;
30287;SDS011;17103;48.316;11.558;2023-04-06T10:07:21;6.00;;;4.78;;
30287;SDS011;17103;48.316;11.558;2023-04-06T10:09:47;6.93;;;4.63;;
30287;SDS011;17103;48.316;11.558;2023-04-06T10:12:14;6.78;;;4.13;;
30287;SDS011;17103;48.316;11.558;2023-04-06T10:14:40;5.78;;;3.70;;
30287;SDS011;17103;48.316;11.558;2023-04-06T10:17:07;6.15;;;4.90;;
30287;SDS011;17103;48.316;11.558;2023-04-06T10:20:16;5.28;;;4.13;;
30287;SDS011;17103;48.316;11.558;2023-04-06T10:22:39;6.07;;;4.05;;
30287;SDS011;17103;48.316;11.558;2023-04-06T10:25:31;6.68;;;4.70;;
30287;SDS011;17103;48.316;11.558;2023-04-06T10:28:07;10.02;;;4.50;;
30287;SDS011;17103;48.316;11.558;2023-04-06T10:30:34;7.75;;;5.68;;
30287;SDS011;17103;48.316;11.558;2023-04-06T10:33:16;8.30;;;5.70;;
30287;SDS011;17103;48.316;11.558;2023-04-06T10:35:43;6.78;;;4.57;;
30287;SDS011;17103;48.316;11.558;2023-04-06T10:38:09;7.03;;;5.18;;
30287;SDS011;17103;48.316;11.558;2023-04-06T10:40:37;6.07;;;5.45;;
30287;SDS011;17103;48.316;11.558;2023-04-06T10:43:10;11.25;;;5.88;;
30287;SDS011;17103;48.316;11.558;2023-04-06T10:45:37;7.45;;;5.13;;
30287;SDS011;17103;48.316;11.558;2023-04-06T10:48:13;7.82;;;5.88;;
30287;SDS011;17103;48.316;11.558;2023-04-06T10:50:41;6.32;;;5.60;;
30287;SDS011;17103;48.316;11.558;2023-04-06T10:53:20;10.43;;;7.75;;
30287;SDS011;17103;48.316;11.558;2023-04-06T10:55:47;9.82;;;6.10;;
30287;SDS011;17103;48.316;11.558;2023-04-06T10:58:14;8.30;;;6.20;;
30287;SDS011;17103;48.316;11.558;2023-04-06T11:00:47;8.27;;;6.72;;
30287;SDS011;17103;48.316;11.558;2023-04-06T11:03:13;9.13;;;6.30;;
30287;SDS011;17103;48.316;11.558;2023-04-06T11:05:43;7.70;;;6.40;;
30287;SDS011;17103;48.316;11.558;2023-04-06T11:08:09;9.45;;;6.90;;
30287;SDS011;17103;48.316;11.558;2023-04-06T11:10:35;8.50;;;5.97;;
30287;SDS011;17103;48.316;11.558;2023-04-06T11:13:00;7.18;;;5.75;;
30287;SDS011;17103;48.316;11.558;2023-04-06T11:15:33;6.53;;;5.63;;
30287;SDS011;17103;48.316;11.558;2023-04-06T11:18:02;8.70;;;5.93;;
30287;SDS011;17103;48.316;11.558;2023-04-06T11:20:29;9.13;;;6.25;;
30287;SDS011;17103;48.316;11.558;2023-04-06T11:22:54;7.20;;;6.25;;
30287;SDS011;17103;48.316;11.558;2023-04-06T11:25:20;8.35;;;5.82;;
30287;SDS011;17103;48.316;11.558;2023-04-06T11:27:46;9.32;;;6.47;;
30287;SDS011;17103;48.316;11.558;2023-04-06T11:30:13;11.25;;;7.70;;
30287;SDS011;17103;48.316;11.558;2023-04-06T11:32:40;9.18;;;6.75;;
30287;SDS011;17103;48.316;11.558;2023-04-06T11:35:10;8.85;;;6.68;;
30287;SDS011;17103;48.316;11.558;2023-04-06T11:37:46;6.28;;;5.60;;
30287;SDS011;17103;48.316;11.558;2023-04-06T11:40:11;8.77;;;6.05;;
30287;SDS011;17103;48.316;11.558;2023-04-06T11:42:37;9.73;;;7.35;;
30287;SDS011;17103;48.316;11.558;2023-04-06T11:45:03;9.00;;;6.53;;
30287;SDS011;17103;48.316;11.558;2023-04-06T11:47:33;10.23;;;6.85;;
30287;SDS011;17103;48.316;11.558;2023-04-06T11:50:13;8.10;;;6.50;;
30287;SDS011;17103;48.316;11.558;2023-04-06T11:52:39;9.02;;;5.90;;
30287;SDS011;17103;48.316;11.558;2023-04-06T11:55:12;8.07;;;5.55;;
30287;SDS011;17103;48.316;11.558;2023-04-06T11:57:40;4.43;;;3.08;;
30287;SDS011;17103;48.316;11.558;2023-04-06T12:00:07;7.63;;;5.57;;
30287;SDS011;17103;48.316;11.558;2023-04-06T12:02:35;6.60;;;5.60;;
30287;SDS011;17103;48.316;11.558;2023-04-06T12:05:02;8.90;;;6.47;;
30287;SDS011;17103;48.316;11.558;2023-04-06T12:07:28;9.07;;;6.10;;
30287;SDS011;17103;48.316;11.558;2023-04-06T12:09:55;7.03;;;5.72;;
30287;SDS011;17103;48.316;11.558;2023-04-06T12:12:21;6.65;;;5.47;;
30287;SDS011;17103;48.316;11.558;2023-04-06T12:14:46;10.07;;;5.78;;
30287;SDS011;17103;48.316;11.558;2023-04-06T12:17:12;6.93;;;5.82;;
30287;SDS011;17103;48.316;11.558;2023-04-06T12:19:38;7.80;;;5.65;;
30287;SDS011;17103;48.316;11.558;2023-04-06T12:22:03;8.13;;;5.68;;
30287;SDS011;17103;48.316;11.558;2023-04-06T12:24:29;7.25;;;5.50;;
30287;SDS011;17103;48.316;11.558;2023-04-06T12:26:54;7.05;;;5.57;;
30287;SDS011;17103;48.316;11.558;2023-04-06T12:29:20;6.43;;;5.32;;
30287;SDS011;17103;48.316;11.558;2023-04-06T12:31:46;6.68;;;5.35;;
30287;SDS011;17103;48.316;11.558;2023-04-06T12:34:11;6.20;;;5.25;;
30287;SDS011;17103;48.316;11.558;2023-04-06T12:36:37;6.00;;;4.90;;
30287;SDS011;17103;48.316;11.558;2023-04-06T12:39:03;7.28;;;4.78;;
30287;SDS011;17103;48.316;11.558;2023-04-06T12:41:30;4.30;;;3.65;;
30287;SDS011;17103;48.316;11.558;2023-04-06T12:43:55;5.28;;;3.50;;
30287;SDS011;17103;48.316;11.558;2023-04-06T12:46:22;5.72;;;3.97;;
30287;SDS011;17103;48.316;11.558;2023-04-06T12:48:48;10.35;;;6.50;;
30287;SDS011;17103;48.316;11.558;2023-04-06T12:51:14;5.20;;;4.35;;
30287;SDS011;17103;48.316;11.558;2023-04-06T12:53:40;7.95;;;5.10;;
30287;SDS011;17103;48.316;11.558;2023-04-06T12:56:12;6.07;;;4.22;;
30287;SDS011;17103;48.316;11.558;2023-04-06T12:58:42;4.88;;;4.38;;
30287;SDS011;17103;48.316;11.558;2023-04-06T13:01:08;4.97;;;4.47;;
30287;SDS011;17103;48.316;11.558;2023-04-06T13:03:35;6.20;;;4.18;;
30287;SDS011;17103;48.316;11.558;2023-04-06T13:06:01;7.10;;;5.20;;
30287;SDS011;17103;48.316;11.558;2023-04-06T13:08:27;7.38;;;5.97;;
30287;SDS011;17103;48.316;11.558;2023-04-06T13:10:53;7.30;;;5.95;;
30287;SDS011;17103;48.316;11.558;2023-04-06T13:13:23;8.55;;;6.25;;
30287;SDS011;17103;48.316;11.558;2023-04-06T13:15:50;6.07;;;5.30;;
30287;SDS011;17103;48.316;11.558;2023-04-06T13:18:17;7.43;;;6.18;;
30287;SDS011;17103;48.316;11.558;2023-04-06T13:20:42;5.40;;;4.65;;
30287;SDS011;17103;48.316;11.558;2023-04-06T13:23:08;5.93;;;4.57;;
30287;SDS011;17103;48.316;11.558;2023-04-06T13:25:34;5.78;;;4.47;;
30287;SDS011;17103;48.316;11.558;2023-04-06T13:28:00;5.25;;;4.72;;
30287;SDS011;17103;48.316;11.558;2023-04-06T13:30:25;6.13;;;4.40;;
30287;SDS011;17103;48.316;11.558;2023-04-06T13:32:51;9.10;;;4.65;;
30287;SDS011;17103;48.316;11.558;2023-04-06T13:35:17;6.03;;;4.50;;
30287;SDS011;17103;48.316;11.558;2023-04-06T13:37:42;5.55;;;4.20;;
30287;SDS011;17103;48.316;11.558;2023-04-06T13:40:08;5.68;;;5.10;;
30287;SDS011;17103;48.316;11.558;2023-04-06T13:42:35;5.78;;;5.05;;
30287;SDS011;17103;48.316;11.558;2023-04-06T13:45:01;6.43;;;5.22;;
30287;SDS011;17103;48.316;11.558;2023-04-06T13:47:26;6.68;;;4.55;;
30287;SDS011;17103;48.316;11.558;2023-04-06T13:49:52;6.40;;;5.72;;
30287;SDS011;17103;48.316;11.558;2023-04-06T13:52:20;9.25;;;5.25;;
30287;SDS011;17103;48.316;11.558;2023-04-06T13:54:46;5.72;;;4.75;;
30287;SDS011;17103;48.316;11.558;2023-04-06T13:57:11;5.50;;;4.80;;
30287;SDS011;17103;48.316;11.558;2023-04-06T13:59:38;5.82;;;5.05;;
30287;SDS011;17103;48.316;11.558;2023-04-06T14:02:05;7.75;;;5.20;;
30287;SDS011;17103;48.316;11.558;2023-04-06T14:04:33;4.85;;;4.30;;
30287;SDS011;17103;48.316;11.558;2023-04-06T14:06:59;6.65;;;4.95;;
30287;SDS011;17103;48.316;11.558;2023-04-06T14:09:26;7.88;;;5.40;;
30287;SDS011;17103;48.316;11.558;2023-04-06T14:11:52;7.57;;;3.80;;
30287;SDS011;17103;48.316;11.558;2023-04-06T14:14:18;5.25;;;4.70;;
30287;SDS011;17103;48.316;11.558;2023-04-06T14:16:47;6.00;;;4.82;;
30287;SDS011;17103;48.316;11.558;2023-04-06T14:19:14;6.72;;;5.43;;
30287;SDS011;17103;48.316;11.558;2023-04-06T14:21:44;5.22;;;4.40;;
30287;SDS011;17103;48.316;11.558;2023-04-06T14:24:11;5.78;;;4.70;;
30287;SDS011;17103;48.316;11.558;2023-04-06T14:26:38;5.50;;;4.65;;
30287;SDS011;17103;48.316;11.558;2023-04-06T14:29:06;4.97;;;4.28;;
30287;SDS011;17103;48.316;11.558;2023-04-06T14:31:34;6.22;;;4.53;;
30287;SDS011;17103;48.316;11.558;2023-04-06T14:34:01;7.45;;;5.13;;
30287;SDS011;17103;48.316;11.558;2023-04-06T14:36:28;8.30;;;5.18;;